createdAt,value
2024-05-09T00:00:51.177Z,23.22
2024-05-09T00:03:21.449Z,23.26
2024-05-09T00:05:51.745Z,23.24
2024-05-09T00:08:24.666Z,23.25
2024-05-09T00:10:55.002Z,23.21
2024-05-09T00:13:25.108Z,23.22
2024-05-09T00:15:55.381Z,23.20
2024-05-09T00:18:25.697Z,23.18
2024-05-09T00:20:55.863Z,23.17
2024-05-09T00:23:29.425Z,23.18
2024-05-09T00:25:59.720Z,23.18
2024-05-09T00:28:29.840Z,23.17
2024-05-09T00:30:59.997Z,23.16
2024-05-09T00:33:30.271Z,23.14
2024-05-09T00:36:00.479Z,23.16
2024-05-09T00:38:33.353Z,23.17
2024-05-09T00:41:03.571Z,23.16
2024-05-09T00:43:33.619Z,23.19
2024-05-09T00:46:03.850Z,23.18
2024-05-09T00:48:34.556Z,23.18
2024-05-09T00:51:05.276Z,23.20
2024-05-09T00:53:38.250Z,23.18
2024-05-09T00:56:08.791Z,23.18
2024-05-09T00:58:39.018Z,23.17
2024-05-09T01:01:09.690Z,23.17
2024-05-09T01:03:39.863Z,23.17
2024-05-09T01:06:10.474Z,23.18
2024-05-09T01:08:43.572Z,23.18
2024-05-09T01:11:13.968Z,23.16
2024-05-09T01:13:45.101Z,23.16
2024-05-09T01:16:16.641Z,23.14
2024-05-09T01:18:46.797Z,23.16
2024-05-09T01:21:17.101Z,23.11
2024-05-09T01:23:50.041Z,23.14
2024-05-09T01:26:20.326Z,23.14
2024-05-09T01:28:50.537Z,23.12
2024-05-09T01:31:20.708Z,23.16
2024-05-09T01:33:50.909Z,23.12
2024-05-09T01:36:21.554Z,23.14
2024-05-09T01:38:54.358Z,23.13
2024-05-09T01:41:24.485Z,23.16
2024-05-09T01:43:54.624Z,23.16
2024-05-09T01:46:24.759Z,23.14
2024-05-09T01:48:55.006Z,23.12
2024-05-09T01:51:25.232Z,23.14
2024-05-09T01:53:59.584Z,23.12
2024-05-09T01:56:29.767Z,23.14
2024-05-09T01:59:00.019Z,23.13
2024-05-09T02:01:30.311Z,23.14
2024-05-09T02:04:20.608Z,23.12
2024-05-09T02:06:50.831Z,23.16
2024-05-09T02:09:23.642Z,23.16
2024-05-09T02:11:53.862Z,23.12
2024-05-09T02:14:24.334Z,23.14
2024-05-09T02:16:54.715Z,23.16
2024-05-09T02:19:24.950Z,23.12
2024-05-09T02:21:55.058Z,23.11
2024-05-09T02:24:27.881Z,23.09
2024-05-09T02:26:58.040Z,23.12
2024-05-09T02:29:28.232Z,23.12
2024-05-09T02:31:58.687Z,23.10
2024-05-09T02:34:28.958Z,23.12
2024-05-09T02:36:59.226Z,23.12
2024-05-09T02:39:29.347Z,23.11
2024-05-09T02:41:59.434Z,23.11
2024-05-09T02:44:26.962Z,23.11
2024-05-09T02:46:56.966Z,23.13
2024-05-09T02:49:24.617Z,23.10
2024-05-09T02:51:54.712Z,23.11
2024-05-09T02:54:22.090Z,23.13
2024-05-09T02:56:54.784Z,23.12
2024-05-09T02:59:22.312Z,23.14
2024-05-09T03:01:52.925Z,23.12
2024-05-09T03:04:20.485Z,23.13
2024-05-09T03:06:50.599Z,23.13
2024-05-09T03:09:18.147Z,23.11
2024-05-09T03:11:48.276Z,23.13
2024-05-09T03:14:19.742Z,23.13
2024-05-09T03:16:50.180Z,23.14
2024-05-09T03:19:17.680Z,23.12
2024-05-09T03:21:47.799Z,23.14
2024-05-09T03:24:15.146Z,23.12
2024-05-09T03:26:45.366Z,23.13
2024-05-09T03:29:12.794Z,23.13
2024-05-09T03:31:45.683Z,23.14
2024-05-09T03:34:13.102Z,23.13
2024-05-09T03:36:44.495Z,23.13
2024-05-09T03:39:14.626Z,23.12
2024-05-09T03:41:44.730Z,23.12
2024-05-09T03:44:14.840Z,23.10
2024-05-09T03:46:44.886Z,23.11
2024-05-09T03:49:15.344Z,23.12
2024-05-09T03:51:43.196Z,23.12
2024-05-09T03:54:13.215Z,23.11
2024-05-09T03:56:42.964Z,23.14
2024-05-09T03:59:13.123Z,23.13
2024-05-09T04:01:40.606Z,23.14
2024-05-09T04:04:13.485Z,23.12
2024-05-09T04:06:40.808Z,23.12
2024-05-09T04:09:10.828Z,23.11
2024-05-09T04:11:38.403Z,23.10
2024-05-09T04:14:08.592Z,23.13
2024-05-09T04:16:36.157Z,23.13
2024-05-09T04:19:06.547Z,23.11
2024-05-09T04:21:36.756Z,23.10
2024-05-09T04:24:06.960Z,23.09
2024-05-09T04:26:34.404Z,23.08
2024-05-09T04:29:04.731Z,23.10
2024-05-09T04:31:36.458Z,23.11
2024-05-09T04:34:06.759Z,23.08
2024-05-09T04:36:43.183Z,23.09
2024-05-09T04:39:11.905Z,23.08
2024-05-09T04:41:42.036Z,23.10
2024-05-09T04:44:09.462Z,23.09
2024-05-09T04:46:40.121Z,23.09
2024-05-09T04:49:07.619Z,23.09
2024-05-09T04:51:40.605Z,23.09
2024-05-09T04:54:10.728Z,23.09
2024-05-09T04:56:43.215Z,23.10
2024-05-09T04:59:10.619Z,23.10
2024-05-09T05:01:40.688Z,23.12
2024-05-09T05:04:08.085Z,23.11
2024-05-09T05:06:40.821Z,23.09
2024-05-09T05:09:08.236Z,23.09
2024-05-09T05:11:38.454Z,23.10
2024-05-09T05:14:06.014Z,23.10
2024-05-09T05:16:36.104Z,23.11
2024-05-09T05:19:03.949Z,23.09
2024-05-09T05:21:34.945Z,23.12
2024-05-09T05:24:05.677Z,23.11
2024-05-09T05:26:36.082Z,23.09
2024-05-09T05:29:04.097Z,23.10
2024-05-09T05:31:34.213Z,23.10
2024-05-09T05:34:01.585Z,23.11
2024-05-09T05:36:31.645Z,23.11
2024-05-09T05:38:59.035Z,23.13
2024-05-09T05:41:32.007Z,23.11
2024-05-09T05:44:02.143Z,23.13
2024-05-09T05:46:29.580Z,23.14
2024-05-09T05:48:59.833Z,23.13
2024-05-09T05:51:27.538Z,23.13
2024-05-09T05:53:58.134Z,23.14
2024-05-09T05:56:26.607Z,23.14
2024-05-09T05:59:00.541Z,23.12
2024-05-09T06:01:28.017Z,23.14
2024-05-09T06:03:58.297Z,23.13
2024-05-09T06:06:26.620Z,23.13
2024-05-09T06:08:57.979Z,23.15
2024-05-09T06:11:25.498Z,23.12
2024-05-09T06:13:56.380Z,23.13
2024-05-09T06:16:26.469Z,23.14
2024-05-09T06:18:56.609Z,23.16
2024-05-09T06:21:24.220Z,23.16
2024-05-09T06:23:55.022Z,23.16
2024-05-09T06:26:22.409Z,23.17
2024-05-09T06:28:52.594Z,23.16
2024-05-09T06:31:19.976Z,23.16
2024-05-09T06:33:52.934Z,23.14
2024-05-09T06:36:20.379Z,23.14
2024-05-09T06:38:50.503Z,23.17
2024-05-09T06:41:17.989Z,23.17
2024-05-09T06:43:48.188Z,23.18
2024-05-09T06:46:15.690Z,23.18
2024-05-09T06:48:48.478Z,23.18
2024-05-09T06:51:19.286Z,23.19
2024-05-09T06:53:49.345Z,23.17
2024-05-09T06:56:16.810Z,23.16
2024-05-09T06:58:46.976Z,23.17
2024-05-09T07:01:14.474Z,23.14
2024-05-09T07:03:45.766Z,23.14
2024-05-09T07:06:13.760Z,23.15
2024-05-09T07:08:48.059Z,23.13
2024-05-09T07:11:16.265Z,23.16
2024-05-09T07:13:46.477Z,23.18
2024-05-09T07:16:13.866Z,23.18
2024-05-09T07:18:44.038Z,23.16
2024-05-09T07:21:11.657Z,23.16
2024-05-09T07:23:46.132Z,23.17
2024-05-09T07:26:18.262Z,23.17
2024-05-09T07:28:48.566Z,23.18
2024-05-09T07:31:16.611Z,23.14
2024-05-09T07:33:46.799Z,23.17
2024-05-09T07:36:14.155Z,23.20
2024-05-09T07:38:44.395Z,23.20
2024-05-09T07:41:11.774Z,23.19
2024-05-09T07:43:44.609Z,23.23
2024-05-09T07:53:53.267Z,23.28
2024-05-09T07:56:24.311Z,23.28
2024-05-09T07:58:58.269Z,23.29
2024-05-09T08:01:27.245Z,23.29
2024-05-09T08:03:57.802Z,23.34
2024-05-09T08:06:26.286Z,23.32
2024-05-09T08:08:57.911Z,23.35
2024-05-09T08:11:26.998Z,23.37
2024-05-09T08:13:59.745Z,23.38
2024-05-09T08:16:27.156Z,23.40
2024-05-09T08:18:57.356Z,23.41
2024-05-09T08:21:24.875Z,23.42
2024-05-09T08:23:54.930Z,23.44
2024-05-09T08:26:22.287Z,23.46
2024-05-09T08:28:52.371Z,23.47
2024-05-09T08:31:22.718Z,23.48
2024-05-09T08:33:54.810Z,23.49
2024-05-09T08:36:22.523Z,23.53
2024-05-09T08:38:52.636Z,23.52
2024-05-09T08:41:20.130Z,23.17
2024-05-09T08:43:50.330Z,23.50
2024-05-09T08:46:19.258Z,23.47
2024-05-09T08:48:52.886Z,23.45
2024-05-09T08:51:20.674Z,23.43
2024-05-09T08:53:51.038Z,23.42
2024-05-09T08:56:20.936Z,23.41
2024-05-09T08:58:52.362Z,23.40
2024-05-09T09:01:20.171Z,23.37
2024-05-09T09:03:54.800Z,23.34
2024-05-09T09:06:22.407Z,23.34
2024-05-09T09:08:52.528Z,23.30
2024-05-09T09:11:20.051Z,23.30
2024-05-09T09:13:50.281Z,23.32
2024-05-09T09:16:17.760Z,23.31
2024-05-09T09:18:48.218Z,23.30
2024-05-09T09:21:18.557Z,23.28
2024-05-09T09:23:48.600Z,23.27
2024-05-09T09:26:16.556Z,23.24
2024-05-09T09:28:47.739Z,23.23
2024-05-09T09:31:18.475Z,23.23
2024-05-09T09:33:48.811Z,23.24
2024-05-09T09:36:19.502Z,23.21
2024-05-09T09:38:51.133Z,23.20
2024-05-09T09:41:23.143Z,23.18
2024-05-09T09:43:53.415Z,23.19
2024-05-09T09:46:21.320Z,23.17
2024-05-09T09:48:51.873Z,23.17
2024-05-09T09:51:22.707Z,23.16
2024-05-09T09:53:56.648Z,23.16
2024-05-09T09:56:27.349Z,23.16
2024-05-09T09:59:02.988Z,23.14
2024-05-09T10:01:33.375Z,23.16
2024-05-09T10:04:05.948Z,23.18
2024-05-09T10:06:37.950Z,23.21
2024-05-09T10:09:08.156Z,23.20
2024-05-09T10:11:42.064Z,23.23
2024-05-09T10:14:23.323Z,23.23
2024-05-09T10:16:50.740Z,23.25
2024-05-09T10:19:30.507Z,23.24
2024-05-09T10:22:04.213Z,23.22
2024-05-09T10:24:49.331Z,23.20
2024-05-09T10:27:16.728Z,23.08
2024-05-09T10:29:56.754Z,23.17
2024-05-09T10:32:24.432Z,23.21
2024-05-09T10:35:03.764Z,23.22
2024-05-09T10:37:34.609Z,23.24
2024-05-09T10:40:11.935Z,23.23
2024-05-09T10:42:45.091Z,23.24
2024-05-09T10:45:15.186Z,23.25
2024-05-09T10:47:43.076Z,23.22
2024-05-09T10:50:22.224Z,23.23
2024-05-09T10:53:00.524Z,23.25
2024-05-09T10:55:30.630Z,23.26
2024-05-09T10:57:59.341Z,23.28
2024-05-09T11:00:36.558Z,23.26
2024-05-09T11:03:07.851Z,23.28
2024-05-09T11:05:43.265Z,23.27
2024-05-09T11:08:15.925Z,23.25
2024-05-09T11:10:49.267Z,23.23
2024-05-09T11:13:27.813Z,23.23
2024-05-09T11:16:01.533Z,23.24
2024-05-09T11:18:34.834Z,23.25
2024-05-09T11:21:15.768Z,23.25
2024-05-09T11:23:47.849Z,23.24
2024-05-09T11:26:26.432Z,23.26
2024-05-09T11:28:53.893Z,23.25
2024-05-09T11:31:24.045Z,23.25
2024-05-09T11:33:54.192Z,23.23
2024-05-09T11:36:24.346Z,23.25
2024-05-09T11:38:54.443Z,23.25
2024-05-09T11:41:24.577Z,23.25
2024-05-09T11:43:52.153Z,23.28
2024-05-09T11:46:22.329Z,23.29
2024-05-09T11:48:49.971Z,23.28
2024-05-09T11:51:20.172Z,23.30
2024-05-09T11:53:47.724Z,23.27
2024-05-09T11:56:20.570Z,23.29
2024-05-09T11:58:48.019Z,23.31
2024-05-09T12:01:20.305Z,23.31
2024-05-09T12:03:49.774Z,23.33
2024-05-09T12:06:20.429Z,23.32
2024-05-09T12:08:47.852Z,23.32
2024-05-09T12:11:20.687Z,23.32
2024-05-09T12:13:48.150Z,23.32
2024-05-09T12:16:18.326Z,23.31
2024-05-09T12:18:45.864Z,23.30
2024-05-09T12:21:17.623Z,23.33
2024-05-09T12:23:45.062Z,23.30
2024-05-09T12:26:16.050Z,23.32
2024-05-09T12:28:46.258Z,23.32
2024-05-09T12:31:16.564Z,23.32
2024-05-09T12:33:44.168Z,23.31
2024-05-09T12:36:14.385Z,23.32
2024-05-09T12:38:41.985Z,23.33
2024-05-09T12:41:12.048Z,23.35
2024-05-09T12:43:39.455Z,23.34
2024-05-09T12:46:12.462Z,23.33
2024-05-09T12:48:40.074Z,23.33
2024-05-09T12:51:10.314Z,23.31
2024-05-09T12:53:37.714Z,23.33
2024-05-09T12:56:09.397Z,23.34
2024-05-09T12:58:37.277Z,23.35
2024-05-09T13:01:07.531Z,23.36
2024-05-09T13:03:37.849Z,23.40
2024-05-09T13:06:08.135Z,23.42
2024-05-09T13:08:35.660Z,23.41
2024-05-09T13:11:05.793Z,23.41
2024-05-09T13:13:33.173Z,23.39
2024-05-09T13:16:03.215Z,23.40
2024-05-09T13:18:30.731Z,23.39
2024-05-09T13:21:03.596Z,23.38
2024-05-09T13:23:30.994Z,23.39
2024-05-09T13:26:01.091Z,23.41
2024-05-09T13:28:28.481Z,23.40
2024-05-09T13:30:58.957Z,23.40
2024-05-09T13:33:29.166Z,23.41
2024-05-09T13:35:56.805Z,23.44
2024-05-09T13:38:29.622Z,23.42
2024-05-09T13:40:57.064Z,23.44
2024-05-09T13:43:27.223Z,23.43
2024-05-09T13:45:55.981Z,23.43
2024-05-09T13:48:26.342Z,23.43
2024-05-09T13:50:53.858Z,23.42
2024-05-09T13:53:25.418Z,23.44
2024-05-09T13:55:55.611Z,23.42
2024-05-09T13:58:26.354Z,23.43
2024-05-09T14:00:53.909Z,23.44
2024-05-09T14:03:24.844Z,23.46
2024-05-09T14:05:52.583Z,23.46
2024-05-09T14:08:23.122Z,23.49
2024-05-09T14:10:51.052Z,23.49
2024-05-09T14:13:24.027Z,23.50
2024-05-09T14:15:51.837Z,23.50
2024-05-09T14:18:22.137Z,23.50
2024-05-09T14:20:49.539Z,23.48
2024-05-09T14:23:20.903Z,23.49
2024-05-09T14:25:52.187Z,23.48
2024-05-09T14:28:27.256Z,23.49
2024-05-09T14:30:56.924Z,23.47
2024-05-09T14:33:27.845Z,23.47
2024-05-09T14:35:55.508Z,23.46
2024-05-09T14:38:26.364Z,23.46
2024-05-09T14:40:54.069Z,23.46
2024-05-09T14:43:27.136Z,23.46
2024-05-09T14:45:56.115Z,23.44
2024-05-09T14:48:27.245Z,23.21
2024-05-09T14:50:54.780Z,23.47
2024-05-09T14:53:30.083Z,23.47
2024-05-09T14:55:57.954Z,23.45
2024-05-09T14:58:31.053Z,23.42
2024-05-09T15:00:58.760Z,23.40
2024-05-09T15:03:28.967Z,23.38
2024-05-09T15:05:56.512Z,23.39
2024-05-09T15:08:26.703Z,23.42
2024-05-09T15:10:54.255Z,23.44
2024-05-09T15:13:24.956Z,23.43
2024-05-09T15:15:56.177Z,23.45
2024-05-09T15:18:27.020Z,23.45
2024-05-09T15:20:54.586Z,23.48
2024-05-09T15:23:24.694Z,23.46
2024-05-09T15:25:52.075Z,23.45
2024-05-09T15:28:22.312Z,23.47
2024-05-09T15:30:49.806Z,23.48
2024-05-09T15:33:22.832Z,23.49
2024-05-09T15:35:51.094Z,23.49
2024-05-09T15:38:21.201Z,23.50
2024-05-09T15:40:48.797Z,23.51
2024-05-09T15:43:19.223Z,23.49
2024-05-09T15:45:46.793Z,23.51
2024-05-09T15:48:17.338Z,23.50
2024-05-09T15:50:47.563Z,23.49
2024-05-09T15:53:18.128Z,23.51
2024-05-09T15:55:45.564Z,23.50
2024-05-09T15:58:16.280Z,23.52
2024-05-09T16:00:45.595Z,23.52
2024-05-09T16:03:17.517Z,23.52
2024-05-09T16:05:48.289Z,23.51
2024-05-09T16:08:19.089Z,23.51
2024-05-09T16:10:47.591Z,23.50
2024-05-09T16:13:19.973Z,23.52
2024-05-09T16:15:47.698Z,23.51
2024-05-09T16:18:18.056Z,23.51
2024-05-09T16:20:50.066Z,23.53
2024-05-09T16:23:20.574Z,23.51
2024-05-09T16:25:48.608Z,23.50
2024-05-09T16:28:20.220Z,23.51
2024-05-09T16:30:48.443Z,23.49
2024-05-09T16:33:19.717Z,23.49
2024-05-09T16:35:50.557Z,23.50
2024-05-09T16:38:20.832Z,23.52
2024-05-09T16:40:48.292Z,23.52
2024-05-09T16:43:19.553Z,23.52
2024-05-09T16:45:47.885Z,23.53
2024-05-09T16:48:19.696Z,23.50
2024-05-09T16:50:50.861Z,23.50
2024-05-09T16:53:21.896Z,23.51
2024-05-09T16:55:49.588Z,23.51
2024-05-09T16:58:19.803Z,23.52
2024-05-09T17:00:47.461Z,23.52
2024-05-09T17:03:17.763Z,23.53
2024-05-09T17:05:47.033Z,23.53
2024-05-09T17:08:20.835Z,23.53
2024-05-09T17:10:49.510Z,23.53
2024-05-09T17:13:20.605Z,23.53
2024-05-09T17:15:51.503Z,23.52
2024-05-09T17:18:22.918Z,23.52
2024-05-09T17:20:53.374Z,23.53
2024-05-09T17:23:25.790Z,23.51
2024-05-09T17:25:56.094Z,23.53
2024-05-09T17:28:23.934Z,23.52
2024-05-09T17:30:54.219Z,23.50
2024-05-09T17:33:21.812Z,23.52
2024-05-09T17:35:53.158Z,23.52
2024-05-09T17:38:24.218Z,23.52
2024-05-09T17:40:55.262Z,23.52
2024-05-09T17:43:23.941Z,23.51
2024-05-09T17:45:54.191Z,23.51
2024-05-09T17:48:22.014Z,23.53
2024-05-09T17:50:52.185Z,23.52
2024-05-09T17:53:20.411Z,23.51
2024-05-09T17:55:54.127Z,23.52
2024-05-09T17:58:23.161Z,23.51
2024-05-09T18:00:54.108Z,23.53
2024-05-09T18:03:25.505Z,23.54
2024-05-09T18:05:56.317Z,23.52
2024-05-09T18:08:23.756Z,23.54
2024-05-09T18:10:56.623Z,23.52
2024-05-09T18:13:24.202Z,23.51
2024-05-09T18:15:54.387Z,23.49
2024-05-09T18:18:21.981Z,23.49
2024-05-09T18:20:53.040Z,23.48
2024-05-09T18:23:20.432Z,23.47
2024-05-09T18:25:54.891Z,23.48
2024-05-09T18:28:25.591Z,23.49
2024-05-09T18:30:55.938Z,23.48
2024-05-09T18:33:24.986Z,23.48
2024-05-09T18:35:55.527Z,23.48
2024-05-09T18:38:27.128Z,23.46
2024-05-09T18:40:57.549Z,23.45
2024-05-09T18:43:34.835Z,23.45
2024-05-09T18:46:08.691Z,23.45
2024-05-09T18:48:36.541Z,23.47
2024-05-09T18:51:07.295Z,23.48
2024-05-09T18:53:35.007Z,23.47
2024-05-09T18:56:05.188Z,23.48
2024-05-09T18:58:35.225Z,23.48
2024-05-09T19:01:05.613Z,23.47
2024-05-09T19:03:33.436Z,23.46
2024-05-09T19:06:03.969Z,23.47
2024-05-09T19:08:31.561Z,23.48
2024-05-09T19:11:03.270Z,23.48
2024-05-09T19:13:31.344Z,23.48
2024-05-09T19:16:04.339Z,23.45
2024-05-09T19:18:31.894Z,23.47
2024-05-09T19:21:02.087Z,23.45
2024-05-09T19:23:32.579Z,23.44
2024-05-09T19:26:03.450Z,23.44
2024-05-09T19:28:30.916Z,23.45
2024-05-09T19:31:03.770Z,23.45
2024-05-09T19:33:32.392Z,23.44
2024-05-09T19:36:02.551Z,23.47
2024-05-09T19:38:30.034Z,23.45
2024-05-09T19:41:00.108Z,23.46
2024-05-09T19:43:32.279Z,23.45
2024-05-09T19:46:04.046Z,23.44
2024-05-09T19:48:34.396Z,23.43
2024-05-09T19:51:03.067Z,23.45
2024-05-09T19:53:34.060Z,23.45
2024-05-09T19:56:01.649Z,23.45
2024-05-09T19:58:31.717Z,23.46
2024-05-09T20:00:59.340Z,23.43
2024-05-09T20:03:37.081Z,23.43
2024-05-09T20:06:05.171Z,23.44
2024-05-09T20:08:35.278Z,23.44
2024-05-09T20:11:02.570Z,23.44
2024-05-09T20:13:33.015Z,23.44
2024-05-09T20:16:01.715Z,23.42
2024-05-09T20:18:34.725Z,23.42
2024-05-09T20:21:02.547Z,23.42
2024-05-09T20:23:33.030Z,23.44
2024-05-09T20:26:00.722Z,23.42
2024-05-09T20:28:30.804Z,23.44
2024-05-09T20:30:58.693Z,23.44
2024-05-09T20:33:29.925Z,23.42
2024-05-09T20:36:02.159Z,23.41
2024-05-09T20:38:32.764Z,23.42
2024-05-09T20:41:00.251Z,23.44
2024-05-09T20:43:30.420Z,23.43
2024-05-09T20:45:57.844Z,23.42
2024-05-09T20:48:28.125Z,23.41
2024-05-09T20:50:55.544Z,23.41
2024-05-09T20:53:28.248Z,23.40
2024-05-09T20:55:55.615Z,23.38
2024-05-09T20:58:25.839Z,23.37
2024-05-09T21:00:53.426Z,23.40
2024-05-09T21:03:23.703Z,23.40
2024-05-09T21:05:51.303Z,23.40
2024-05-09T21:08:22.761Z,23.41
2024-05-09T21:10:53.516Z,23.40
2024-05-09T21:13:23.725Z,23.39
2024-05-09T21:15:51.641Z,23.38
2024-05-09T21:18:21.898Z,23.38
2024-05-09T21:20:49.355Z,23.39
2024-05-09T21:23:19.455Z,23.41
2024-05-09T21:25:49.643Z,23.39
2024-05-09T21:28:19.885Z,23.41
2024-05-09T21:30:50.092Z,23.42
2024-05-09T21:33:17.634Z,23.37
2024-05-09T21:35:47.717Z,23.38
2024-05-09T21:38:15.494Z,23.38
2024-05-09T21:40:46.100Z,23.38
2024-05-09T21:43:14.642Z,23.39
2024-05-09T21:45:47.676Z,23.40
2024-05-09T21:48:15.242Z,23.39
2024-05-09T21:50:45.455Z,23.40
2024-05-09T21:53:13.512Z,23.40
2024-05-09T21:55:44.384Z,23.41
2024-05-09T21:58:12.142Z,23.42
2024-05-09T22:00:43.163Z,23.42
2024-05-09T22:03:14.477Z,23.42
2024-05-09T22:05:45.412Z,23.40
2024-05-09T22:08:14.298Z,23.40
2024-05-09T22:10:44.532Z,23.39
2024-05-09T22:13:12.118Z,23.41
2024-05-09T22:15:42.928Z,23.39
2024-05-09T22:18:13.341Z,23.39
2024-05-09T22:20:45.839Z,23.40
2024-05-09T22:23:14.479Z,23.40
2024-05-09T22:25:44.802Z,23.42
2024-05-09T22:28:13.551Z,23.40
2024-05-09T22:30:46.562Z,23.40
2024-05-09T22:33:18.384Z,23.40
2024-05-09T22:35:48.631Z,23.39
2024-05-09T22:38:15.985Z,23.40
2024-05-09T22:40:49.140Z,23.42
2024-05-09T22:43:18.983Z,23.38
2024-05-09T22:45:50.027Z,23.39
2024-05-09T22:48:20.871Z,23.40
2024-05-09T22:50:51.126Z,23.38
2024-05-09T22:53:18.544Z,23.38
2024-05-09T22:55:48.612Z,23.38
2024-05-09T22:58:16.098Z,23.39
2024-05-09T23:00:46.336Z,23.37
2024-05-09T23:03:16.033Z,23.37
2024-05-09T23:05:48.839Z,23.38
2024-05-09T23:08:16.376Z,23.37
2024-05-09T23:10:46.588Z,23.37
2024-05-09T23:13:14.095Z,23.38
2024-05-09T23:15:44.303Z,23.36
2024-05-09T23:18:11.842Z,23.36
2024-05-09T23:20:41.866Z,23.32
2024-05-09T23:23:12.329Z,23.32
2024-05-09T23:25:43.973Z,23.33
2024-05-09T23:28:11.641Z,23.31
2024-05-09T23:30:42.513Z,23.31
2024-05-09T23:33:11.323Z,23.30
2024-05-09T23:35:41.632Z,23.32
2024-05-09T23:38:09.100Z,23.30
2024-05-09T23:40:42.928Z,23.28
2024-05-09T23:43:11.618Z,23.28
2024-05-09T23:45:42.792Z,23.29
2024-05-09T23:48:10.447Z,23.27
2024-05-09T23:50:41.342Z,23.27
2024-05-09T23:53:10.254Z,23.27
2024-05-09T23:55:43.975Z,23.28
2024-05-09T23:58:11.949Z,23.27
